createdAt,value
2023-02-15T00:00:09.143Z,69.37
2023-02-15T00:01:10.817Z,69.09
2023-02-15T00:02:12.392Z,69.51
2023-02-15T00:03:14.010Z,69.32
2023-02-15T00:04:16.173Z,69.30
2023-02-15T00:05:17.709Z,68.95
2023-02-15T00:06:19.151Z,69.28
2023-02-15T00:07:20.688Z,69.07
2023-02-15T00:08:22.137Z,69.15
2023-02-15T00:09:23.641Z,69.09
2023-02-15T00:10:25.197Z,69.19
2023-02-15T00:11:41.762Z,69.44
2023-02-15T00:12:43.863Z,68.90
2023-02-15T00:13:45.335Z,69.13
2023-02-15T00:14:46.780Z,69.57
2023-02-15T00:15:48.357Z,69.08
2023-02-15T00:16:50.389Z,69.41
2023-02-15T00:17:51.832Z,69.05
2023-02-15T00:18:53.407Z,69.24
2023-02-15T00:19:54.906Z,68.87
2023-02-15T00:20:56.502Z,69.28
2023-02-15T00:21:58.029Z,69.05
2023-02-15T00:22:59.852Z,69.06
2023-02-15T00:24:01.686Z,68.64
2023-02-15T00:25:03.244Z,68.57
2023-02-15T00:26:08.112Z,68.69
2023-02-15T00:27:10.284Z,68.73
2023-02-15T00:28:11.869Z,68.96
2023-02-15T00:29:13.665Z,68.63
2023-02-15T00:30:15.198Z,68.54
2023-02-15T00:31:16.846Z,68.63
2023-02-15T00:32:18.405Z,68.90
2023-02-15T00:33:19.896Z,68.71
2023-02-15T00:34:26.811Z,68.38
2023-02-15T00:35:28.324Z,69.20
2023-02-15T00:36:29.783Z,68.55
2023-02-15T00:37:31.286Z,68.78
2023-02-15T00:38:32.913Z,68.66
2023-02-15T00:39:34.446Z,68.83
2023-02-15T00:40:35.948Z,68.99
2023-02-15T00:41:37.399Z,68.80
2023-02-15T00:42:38.878Z,68.28
2023-02-15T00:43:40.401Z,68.94
2023-02-15T00:44:42.447Z,69.00
2023-02-15T00:45:43.966Z,68.88
2023-02-15T00:46:47.108Z,69.00
2023-02-15T00:47:48.625Z,68.95
2023-02-15T00:48:50.592Z,69.44
2023-02-15T00:49:52.072Z,68.93
2023-02-15T00:50:54.303Z,69.26
2023-02-15T00:51:55.777Z,69.25
2023-02-15T00:52:57.249Z,68.95
2023-02-15T00:53:58.767Z,68.95
2023-02-15T00:55:00.261Z,69.28
2023-02-15T00:56:02.009Z,69.17
2023-02-15T00:57:03.747Z,69.17
2023-02-15T00:58:05.228Z,69.43
2023-02-15T00:59:06.801Z,69.14
2023-02-15T01:00:08.721Z,68.74
2023-02-15T01:01:17.078Z,69.03
2023-02-15T01:02:19.714Z,68.79
2023-02-15T01:03:22.034Z,69.22
2023-02-15T01:04:23.568Z,68.90
2023-02-15T01:05:25.055Z,69.16
2023-02-15T01:06:26.568Z,69.36
2023-02-15T01:07:28.003Z,68.88
2023-02-15T01:08:29.616Z,69.17
2023-02-15T01:09:31.149Z,69.03
2023-02-15T01:10:32.632Z,68.71
2023-02-15T01:11:34.102Z,69.38
2023-02-15T01:12:35.599Z,68.93
2023-02-15T01:13:37.147Z,69.05
2023-02-15T01:14:38.643Z,69.32
2023-02-15T01:15:42.410Z,68.71
2023-02-15T01:16:45.141Z,69.50
2023-02-15T01:17:52.171Z,69.64
2023-02-15T01:18:55.557Z,69.38
2023-02-15T01:19:57.046Z,69.24
2023-02-15T01:20:58.607Z,69.09
2023-02-15T01:22:00.049Z,69.31
2023-02-15T01:23:01.575Z,69.52
2023-02-15T01:24:03.233Z,69.16
2023-02-15T01:25:04.909Z,69.75
2023-02-15T01:26:06.353Z,69.60
2023-02-15T01:27:07.876Z,69.04
2023-02-15T01:28:09.340Z,69.46
2023-02-15T01:29:10.837Z,69.72
2023-02-15T01:30:12.654Z,69.34
2023-02-15T01:31:15.294Z,69.36
2023-02-15T01:32:16.830Z,69.39
2023-02-15T01:33:19.016Z,69.38
2023-02-15T01:34:21.107Z,69.71
2023-02-15T01:35:22.598Z,69.47
2023-02-15T01:36:24.158Z,69.38
2023-02-15T01:37:27.026Z,69.04
2023-02-15T01:38:28.520Z,69.56
2023-02-15T01:39:30.007Z,69.18
2023-02-15T01:40:31.650Z,69.35
2023-02-15T01:41:33.799Z,69.36
2023-02-15T01:42:35.460Z,69.16
2023-02-15T01:43:40.980Z,69.41
2023-02-15T01:44:45.263Z,69.52
2023-02-15T01:45:48.304Z,69.43
2023-02-15T01:46:51.764Z,69.65
2023-02-15T01:48:00.553Z,69.59
2023-02-15T01:49:09.041Z,70.24
2023-02-15T01:50:16.329Z,70.08
2023-02-15T01:51:18.688Z,69.90
2023-02-15T01:52:20.234Z,69.50
2023-02-15T01:53:35.918Z,70.20
2023-02-15T01:54:37.555Z,70.36
2023-02-15T01:55:51.465Z,69.49
2023-02-15T01:56:53.433Z,69.62
2023-02-15T01:57:54.954Z,70.02
2023-02-15T01:58:58.773Z,69.83
2023-02-15T02:00:00.706Z,69.84
2023-02-15T02:01:04.917Z,69.83
2023-02-15T02:02:06.467Z,69.72
2023-02-15T02:03:07.977Z,69.99
2023-02-15T02:04:11.979Z,69.71
2023-02-15T02:05:13.468Z,69.65
2023-02-15T02:06:14.991Z,69.96
2023-02-15T02:07:17.089Z,69.82
2023-02-15T02:08:18.553Z,69.99
2023-02-15T02:09:20.075Z,69.35
2023-02-15T02:10:23.983Z,69.76
2023-02-15T02:11:25.596Z,69.71
2023-02-15T02:12:27.155Z,69.32
2023-02-15T02:13:28.600Z,69.35
2023-02-15T02:14:30.897Z,69.05
2023-02-15T02:15:35.269Z,69.36
2023-02-15T02:16:39.574Z,69.05
2023-02-15T02:17:51.014Z,69.32
2023-02-15T02:18:59.839Z,69.20
2023-02-15T02:20:16.122Z,69.53
2023-02-15T02:21:29.679Z,69.76
2023-02-15T02:22:31.154Z,69.72
2023-02-15T02:23:38.218Z,69.20
2023-02-15T02:24:39.641Z,69.69
2023-02-15T02:26:01.556Z,69.45
2023-02-15T02:27:06.226Z,69.04
2023-02-15T02:28:26.348Z,69.38
2023-02-15T02:29:33.383Z,69.65
2023-02-15T02:30:46.692Z,69.07
2023-02-15T02:32:04.373Z,69.39
2023-02-15T02:33:10.496Z,69.90
2023-02-15T02:34:21.627Z,69.14
2023-02-15T02:35:28.841Z,69.39
2023-02-15T02:36:33.317Z,69.50
2023-02-15T02:37:38.340Z,69.40
2023-02-15T02:38:58.597Z,70.10
2023-02-15T02:40:21.356Z,69.46
2023-02-15T02:41:28.677Z,69.53
2023-02-15T02:42:36.915Z,69.85
2023-02-15T02:43:50.348Z,69.90
2023-02-15T02:44:55.531Z,69.68
2023-02-15T02:45:58.373Z,69.48
2023-02-15T02:47:20.147Z,69.78
2023-02-15T02:48:22.713Z,69.52
2023-02-15T02:49:31.470Z,69.51
2023-02-15T02:50:32.965Z,69.44
2023-02-15T02:51:34.595Z,69.55
2023-02-15T02:52:38.694Z,69.80
2023-02-15T02:53:40.210Z,69.30
2023-02-15T02:54:41.653Z,69.28
2023-02-15T02:55:47.051Z,69.50
2023-02-15T02:56:48.727Z,70.05
2023-02-15T02:57:52.944Z,69.80
2023-02-15T02:59:06.420Z,69.17
2023-02-15T03:00:09.529Z,69.04
2023-02-15T03:01:14.757Z,69.37
2023-02-15T03:02:22.886Z,69.79
2023-02-15T03:03:27.182Z,69.50
2023-02-15T03:04:30.035Z,69.84
2023-02-15T03:05:31.648Z,69.44
2023-02-15T03:06:48.230Z,69.45
2023-02-15T03:07:51.464Z,69.51
2023-02-15T03:08:55.576Z,69.28
2023-02-15T03:09:58.082Z,69.71
2023-02-15T03:11:00.910Z,69.26
2023-02-15T03:12:03.569Z,69.68
2023-02-15T03:13:06.579Z,69.40
2023-02-15T03:14:08.126Z,70.00
2023-02-15T03:15:26.359Z,70.13
2023-02-15T03:16:29.177Z,69.82
2023-02-15T03:17:32.133Z,69.22
2023-02-15T03:18:36.692Z,69.54
2023-02-15T03:19:38.163Z,69.27
2023-02-15T03:20:40.451Z,69.16
2023-02-15T03:21:50.299Z,69.31
2023-02-15T03:22:52.562Z,69.52
2023-02-15T03:23:55.480Z,69.41
2023-02-15T03:25:07.867Z,69.40
2023-02-15T03:26:09.475Z,69.30
2023-02-15T03:27:13.134Z,69.56
2023-02-15T03:28:16.276Z,69.75
2023-02-15T03:29:18.266Z,69.19
2023-02-15T03:30:20.248Z,69.04
2023-02-15T03:31:21.979Z,69.37
2023-02-15T03:32:23.603Z,69.43
2023-02-15T03:33:25.858Z,70.38
2023-02-15T03:34:27.354Z,70.07
2023-02-15T03:35:32.221Z,69.86
2023-02-15T03:36:54.222Z,69.91
2023-02-15T03:37:56.463Z,69.86
2023-02-15T03:39:08.833Z,69.92
2023-02-15T03:40:35.306Z,69.70
2023-02-15T03:41:39.019Z,69.01
2023-02-15T03:42:40.485Z,69.14
2023-02-15T03:43:47.906Z,69.07
2023-02-15T03:44:56.827Z,68.97
2023-02-15T03:45:59.560Z,68.55
2023-02-15T03:47:07.569Z,69.21
2023-02-15T03:48:09.356Z,68.94
2023-02-15T03:49:11.753Z,68.95
2023-02-15T03:50:41.465Z,69.22
2023-02-15T03:51:46.628Z,69.11
2023-02-15T03:52:48.108Z,68.78
2023-02-15T03:53:49.592Z,68.75
2023-02-15T03:54:51.153Z,68.67
2023-02-15T03:55:54.601Z,68.92
2023-02-15T03:57:16.162Z,68.91
2023-02-15T03:58:36.469Z,68.89
2023-02-15T03:59:56.873Z,69.13
2023-02-15T04:01:23.187Z,69.28
2023-02-15T04:02:25.467Z,68.79
2023-02-15T04:03:29.669Z,69.12
2023-02-15T04:04:32.995Z,68.91
2023-02-15T04:05:34.546Z,68.78
2023-02-15T04:06:36.020Z,69.14
2023-02-15T04:07:37.535Z,68.93
2023-02-15T04:08:57.625Z,69.01
2023-02-15T04:10:17.557Z,68.96
2023-02-15T04:11:19.073Z,69.04
2023-02-15T04:12:20.519Z,69.35
2023-02-15T04:13:22.724Z,69.40
2023-02-15T04:14:42.776Z,69.70
2023-02-15T04:16:03.324Z,69.39
2023-02-15T04:17:08.508Z,69.41
2023-02-15T04:18:09.992Z,69.46
2023-02-15T04:19:30.411Z,69.37
2023-02-15T04:20:50.721Z,69.33
2023-02-15T04:22:10.697Z,69.72
2023-02-15T04:23:30.862Z,69.54
2023-02-15T04:24:51.033Z,69.96
2023-02-15T04:25:52.540Z,69.30
2023-02-15T04:26:53.998Z,69.45
2023-02-15T04:27:55.496Z,69.91
2023-02-15T04:28:57.200Z,69.71
2023-02-15T04:29:58.699Z,69.72
2023-02-15T04:31:00.213Z,70.14
2023-02-15T04:32:02.145Z,69.64
2023-02-15T04:33:03.661Z,69.62
2023-02-15T04:34:05.117Z,69.37
2023-02-15T04:35:07.064Z,69.00
2023-02-15T04:36:08.547Z,69.28
2023-02-15T04:37:11.294Z,69.13
2023-02-15T04:38:12.786Z,69.73
2023-02-15T04:39:14.645Z,69.12
2023-02-15T04:40:19.114Z,68.97
2023-02-15T04:41:20.941Z,69.24
2023-02-15T04:42:22.461Z,68.93
2023-02-15T04:43:23.978Z,69.21
2023-02-15T04:44:25.442Z,69.40
2023-02-15T04:45:28.097Z,69.42
2023-02-15T04:46:29.652Z,69.94
2023-02-15T04:47:31.141Z,69.96
2023-02-15T04:48:32.630Z,69.84
2023-02-15T04:49:34.105Z,70.06
2023-02-15T04:50:35.590Z,70.04
2023-02-15T04:51:37.163Z,70.36
2023-02-15T04:52:38.665Z,70.19
2023-02-15T04:53:40.177Z,70.50
2023-02-15T04:54:41.632Z,70.48
2023-02-15T04:55:43.141Z,70.58
2023-02-15T04:56:44.625Z,70.37
2023-02-15T04:57:46.843Z,70.30
2023-02-15T04:58:48.563Z,70.26
2023-02-15T04:59:50.053Z,70.15
2023-02-15T05:00:51.553Z,70.21
2023-02-15T05:01:53.082Z,70.18
2023-02-15T05:02:54.621Z,69.92
2023-02-15T05:03:56.297Z,70.52
2023-02-15T05:04:57.888Z,70.33
2023-02-15T05:05:59.609Z,70.11
2023-02-15T05:07:01.167Z,70.53
2023-02-15T05:08:02.673Z,70.06
2023-02-15T05:09:04.185Z,69.83
2023-02-15T05:10:05.961Z,69.93
2023-02-15T05:11:07.414Z,69.71
2023-02-15T05:12:09.499Z,69.93
2023-02-15T05:13:11.466Z,70.28
2023-02-15T05:14:12.977Z,70.07
2023-02-15T05:15:14.464Z,70.20
2023-02-15T05:16:15.981Z,70.21
2023-02-15T05:17:17.558Z,70.37
2023-02-15T05:18:19.549Z,70.06
2023-02-15T05:19:21.033Z,70.11
2023-02-15T05:20:22.539Z,69.87
2023-02-15T05:21:24.017Z,69.89
2023-02-15T05:22:27.012Z,69.90
2023-02-15T05:23:28.558Z,70.34
2023-02-15T05:24:48.748Z,70.45
2023-02-15T05:26:08.941Z,70.42
2023-02-15T05:27:31.861Z,70.68
2023-02-15T05:28:33.383Z,70.96
2023-02-15T05:29:34.888Z,71.15
2023-02-15T05:30:37.007Z,70.95
2023-02-15T05:31:39.047Z,71.39
2023-02-15T05:32:40.895Z,70.94
2023-02-15T05:33:42.501Z,71.16
2023-02-15T05:34:43.950Z,71.04
2023-02-15T05:35:45.464Z,71.27
2023-02-15T05:36:46.956Z,71.42
2023-02-15T05:37:48.491Z,71.53
2023-02-15T05:38:50.095Z,71.84
2023-02-15T05:39:51.600Z,71.84
2023-02-15T05:40:53.274Z,71.89
2023-02-15T05:41:54.923Z,71.96
2023-02-15T05:42:56.851Z,71.89
2023-02-15T05:43:58.352Z,71.47
2023-02-15T05:44:59.994Z,71.43
2023-02-15T05:46:01.891Z,71.33
2023-02-15T05:47:03.996Z,71.67
2023-02-15T05:48:05.558Z,71.27
2023-02-15T05:49:07.330Z,70.80
2023-02-15T05:50:09.133Z,70.53
2023-02-15T05:51:12.176Z,70.62
2023-02-15T05:52:13.683Z,70.96
2023-02-15T05:53:15.140Z,70.75
2023-02-15T05:54:16.631Z,70.93
2023-02-15T05:55:18.189Z,71.24
2023-02-15T05:56:19.678Z,70.65
2023-02-15T05:57:21.146Z,70.63
2023-02-15T05:58:22.634Z,71.22
2023-02-15T05:59:24.133Z,70.97
2023-02-15T06:00:26.341Z,71.12
2023-02-15T06:01:27.856Z,71.41
2023-02-15T06:02:29.385Z,71.36
2023-02-15T06:03:30.900Z,71.52
2023-02-15T06:04:32.430Z,71.65
2023-02-15T06:05:34.239Z,71.65
2023-02-15T06:06:35.850Z,71.72
2023-02-15T06:07:37.388Z,71.91
2023-02-15T06:08:39.001Z,71.88
2023-02-15T06:09:40.459Z,71.93
2023-02-15T06:10:41.938Z,72.53
2023-02-15T06:11:43.436Z,72.71
2023-02-15T06:12:45.319Z,72.95
2023-02-15T06:13:46.883Z,72.52
2023-02-15T06:14:48.439Z,72.85
2023-02-15T06:15:50.021Z,72.98
2023-02-15T06:16:51.548Z,72.88
2023-02-15T06:17:53.013Z,73.61
2023-02-15T06:18:54.562Z,73.40
2023-02-15T06:19:56.121Z,73.81
2023-02-15T06:20:57.592Z,73.52
2023-02-15T06:21:59.068Z,73.14
2023-02-15T06:23:00.809Z,72.65
2023-02-15T06:24:02.312Z,72.31
2023-02-15T06:25:04.531Z,72.49
2023-02-15T06:26:06.073Z,72.52
2023-02-15T06:27:07.510Z,72.93
2023-02-15T06:28:09.048Z,72.50
2023-02-15T06:29:10.511Z,72.73
2023-02-15T06:30:12.323Z,72.55
2023-02-15T06:31:13.911Z,72.58
2023-02-15T06:32:15.481Z,72.11
2023-02-15T06:33:16.965Z,72.26
2023-02-15T06:34:18.578Z,72.32
2023-02-15T06:35:20.045Z,72.36
2023-02-15T06:36:21.893Z,72.07
2023-02-15T06:37:23.342Z,72.37
2023-02-15T06:38:24.869Z,71.75
2023-02-15T06:39:26.408Z,71.91
2023-02-15T06:40:27.896Z,71.90
2023-02-15T06:41:29.401Z,71.82
2023-02-15T06:42:30.908Z,71.81
2023-02-15T06:43:32.371Z,71.92
2023-02-15T06:44:33.951Z,72.04
2023-02-15T06:45:35.492Z,71.80
2023-02-15T06:46:37.064Z,72.29
2023-02-15T06:47:38.649Z,72.01
2023-02-15T06:48:40.135Z,71.98
2023-02-15T06:49:41.658Z,72.56
2023-02-15T06:50:43.179Z,72.22
2023-02-15T06:51:44.662Z,72.51
2023-02-15T06:52:46.234Z,72.52
2023-02-15T06:53:47.733Z,72.02
2023-02-15T06:54:49.285Z,71.64
2023-02-15T06:55:50.831Z,71.98
2023-02-15T06:56:52.372Z,71.75
2023-02-15T06:57:53.873Z,72.08
2023-02-15T06:58:55.355Z,72.04
2023-02-15T06:59:57.928Z,72.17
2023-02-15T07:00:59.556Z,72.16
2023-02-15T07:02:01.057Z,72.74
2023-02-15T07:03:03.396Z,72.69
2023-02-15T07:04:05.143Z,72.53
2023-02-15T07:05:06.666Z,72.95
2023-02-15T07:06:09.509Z,72.54
2023-02-15T07:07:11.447Z,72.76
2023-02-15T07:08:12.978Z,73.08
2023-02-15T07:09:14.723Z,73.59
2023-02-15T07:10:16.349Z,74.10
2023-02-15T07:11:36.306Z,74.34
2023-02-15T07:12:43.785Z,73.76
2023-02-15T07:13:45.443Z,73.80
2023-02-15T07:14:46.971Z,74.00
2023-02-15T07:15:48.694Z,74.18
2023-02-15T07:16:50.245Z,74.11
2023-02-15T07:17:51.808Z,74.38
2023-02-15T07:18:53.277Z,74.41
2023-02-15T07:19:55.234Z,74.28
2023-02-15T07:20:56.720Z,74.54
2023-02-15T07:21:58.192Z,74.54
2023-02-15T07:22:59.966Z,74.77
2023-02-15T07:24:01.439Z,74.47
2023-02-15T07:25:03.688Z,74.37
2023-02-15T07:26:05.444Z,74.39
2023-02-15T07:27:07.729Z,73.95
2023-02-15T07:28:10.418Z,73.57
2023-02-15T07:29:11.953Z,73.76
2023-02-15T07:30:14.537Z,73.46
2023-02-15T07:31:16.083Z,73.57
2023-02-15T07:32:17.665Z,73.76
2023-02-15T07:33:24.828Z,73.60
2023-02-15T07:34:26.278Z,73.17
2023-02-15T07:35:28.276Z,72.78
2023-02-15T07:36:29.730Z,73.10
2023-02-15T07:37:31.195Z,73.08
2023-02-15T07:38:36.199Z,72.85
2023-02-15T07:39:37.725Z,72.72
2023-02-15T07:40:39.205Z,72.35
2023-02-15T07:41:40.732Z,72.69
2023-02-15T07:42:46.938Z,73.00
2023-02-15T07:43:48.385Z,73.18
2023-02-15T07:44:49.929Z,73.27
2023-02-15T07:45:51.422Z,73.43
2023-02-15T07:46:53.063Z,73.58
2023-02-15T07:47:54.591Z,73.93
2023-02-15T07:48:56.034Z,73.79
2023-02-15T07:49:57.482Z,73.79
2023-02-15T07:51:02.138Z,73.53
2023-02-15T07:52:03.611Z,73.37
2023-02-15T07:53:05.193Z,73.28
2023-02-15T07:54:06.662Z,73.39
2023-02-15T07:55:09.680Z,73.06
2023-02-15T07:56:11.746Z,73.41
2023-02-15T07:57:13.202Z,73.68
2023-02-15T07:58:14.697Z,73.14
2023-02-15T07:59:16.219Z,73.36
2023-02-15T08:00:18.451Z,73.43
2023-02-15T08:01:20.820Z,73.57
2023-02-15T08:02:22.322Z,73.75
2023-02-15T08:03:30.225Z,74.22
2023-02-15T08:04:32.175Z,74.06
2023-02-15T08:05:33.719Z,74.20
2023-02-15T08:06:35.673Z,74.20
2023-02-15T08:07:37.176Z,73.87
2023-02-15T08:08:38.828Z,73.59
2023-02-15T08:09:40.310Z,73.58
2023-02-15T08:11:00.578Z,73.85
2023-02-15T08:12:03.257Z,74.33
2023-02-15T08:13:04.722Z,74.17
2023-02-15T08:14:09.371Z,74.04
2023-02-15T08:15:10.968Z,74.48
2023-02-15T08:16:14.271Z,74.33
2023-02-15T08:17:15.881Z,73.90
2023-02-15T08:18:17.401Z,74.29
2023-02-15T08:19:28.661Z,74.36
2023-02-15T08:20:30.160Z,74.78
2023-02-15T08:21:31.805Z,74.60
2023-02-15T08:22:33.298Z,74.71
2023-02-15T08:23:34.761Z,74.51
2023-02-15T08:24:37.995Z,74.83
2023-02-15T08:25:39.487Z,75.08
2023-02-15T08:26:42.363Z,75.10
2023-02-15T08:27:44.161Z,75.04
2023-02-15T08:28:47.279Z,75.16
2023-02-15T08:29:48.804Z,75.66
2023-02-15T08:30:50.341Z,75.67
2023-02-15T08:31:59.790Z,76.16
2023-02-15T08:33:01.409Z,75.79
2023-02-15T08:34:02.917Z,75.42
2023-02-15T08:35:04.555Z,75.27
2023-02-15T08:36:06.391Z,74.43
2023-02-15T08:37:08.011Z,74.55
2023-02-15T08:38:09.572Z,74.33
2023-02-15T08:39:11.042Z,74.41
2023-02-15T08:40:14.512Z,74.30
2023-02-15T08:41:20.006Z,73.96
2023-02-15T08:42:21.957Z,74.04
2023-02-15T08:43:23.526Z,73.72
2023-02-15T08:44:25.044Z,73.80
2023-02-15T08:45:26.620Z,73.40
2023-02-15T08:46:29.008Z,73.65
2023-02-15T08:47:30.502Z,74.03
2023-02-15T08:48:32.027Z,74.29
2023-02-15T08:49:33.509Z,74.44
2023-02-15T08:50:35.066Z,75.00
2023-02-15T08:51:37.488Z,74.89
2023-02-15T08:52:39.009Z,74.71
2023-02-15T08:53:41.042Z,75.24
2023-02-15T08:54:42.577Z,75.67
2023-02-15T08:55:44.095Z,75.29
2023-02-15T08:56:45.739Z,75.74
2023-02-15T08:57:47.909Z,75.85
2023-02-15T08:58:49.454Z,76.75
2023-02-15T08:59:51.911Z,77.09
2023-02-15T09:00:53.443Z,77.53
2023-02-15T09:01:55.146Z,77.85
2023-02-15T09:02:56.685Z,77.33
2023-02-15T09:03:59.273Z,76.94
2023-02-15T09:05:00.733Z,76.89
2023-02-15T09:06:02.437Z,76.71
2023-02-15T09:07:05.473Z,76.32
2023-02-15T09:08:06.938Z,76.44
2023-02-15T09:09:08.752Z,76.39
2023-02-15T09:10:10.637Z,76.15
2023-02-15T09:11:12.858Z,75.98
2023-02-15T09:12:14.384Z,76.08
2023-02-15T09:13:15.843Z,76.02
2023-02-15T09:14:18.172Z,75.77
2023-02-15T09:15:19.681Z,76.01
2023-02-15T09:16:21.662Z,75.86
2023-02-15T09:17:23.165Z,75.50
2023-02-15T09:18:24.693Z,75.06
2023-02-15T09:19:26.175Z,74.96
2023-02-15T09:20:28.957Z,74.66
2023-02-15T09:21:30.478Z,74.85
2023-02-15T09:22:32.266Z,74.72
2023-02-15T09:23:33.785Z,74.79
2023-02-15T09:24:35.381Z,74.61
2023-02-15T09:25:36.830Z,75.16
2023-02-15T09:26:40.428Z,75.39
2023-02-15T09:27:42.246Z,75.72
2023-02-15T09:28:43.866Z,75.34
2023-02-15T09:29:45.374Z,75.15
2023-02-15T09:30:47.230Z,75.34
2023-02-15T09:31:50.123Z,74.98
2023-02-15T09:32:51.726Z,75.33
2023-02-15T09:33:53.241Z,75.14
2023-02-15T09:34:54.741Z,75.16
2023-02-15T09:35:57.873Z,74.90
2023-02-15T09:36:59.341Z,74.67
2023-02-15T09:38:01.617Z,74.81
2023-02-15T09:39:06.934Z,75.10
2023-02-15T09:40:08.616Z,75.03
2023-02-15T09:41:12.907Z,75.43
2023-02-15T09:42:21.564Z,75.74
2023-02-15T09:43:37.767Z,75.79
2023-02-15T09:44:41.986Z,75.99
2023-02-15T09:45:48.035Z,76.05
2023-02-15T09:46:58.118Z,76.23
2023-02-15T09:48:18.081Z,76.03
2023-02-15T09:49:22.604Z,75.92
2023-02-15T09:50:36.654Z,76.24
2023-02-15T09:51:42.300Z,76.83
2023-02-15T09:53:03.088Z,76.91
2023-02-15T09:54:09.346Z,77.20
2023-02-15T09:55:10.884Z,76.98
2023-02-15T09:56:16.781Z,77.06
2023-02-15T09:57:24.651Z,76.73
2023-02-15T09:58:38.148Z,77.15
2023-02-15T09:59:46.521Z,77.14
2023-02-15T10:00:53.987Z,77.01
2023-02-15T10:01:59.626Z,76.89
2023-02-15T10:03:01.095Z,76.37
2023-02-15T10:04:08.593Z,76.54
2023-02-15T10:05:10.116Z,77.11
2023-02-15T10:06:16.757Z,77.45
2023-02-15T10:07:37.391Z,77.82
2023-02-15T10:08:51.154Z,77.80
2023-02-15T10:09:58.729Z,77.79
2023-02-15T10:11:24.062Z,77.40
2023-02-15T10:12:31.066Z,77.37
2023-02-15T10:13:35.484Z,77.66
2023-02-15T10:14:39.983Z,77.69
2023-02-15T10:15:51.948Z,78.26
2023-02-15T10:16:53.457Z,78.25
2023-02-15T10:17:57.994Z,78.59
2023-02-15T10:19:02.290Z,78.60
2023-02-15T10:20:18.988Z,78.52
2023-02-15T10:21:22.974Z,77.85
2023-02-15T10:22:27.486Z,77.81
2023-02-15T10:23:28.953Z,77.62
2023-02-15T10:24:42.641Z,77.26
2023-02-15T10:25:51.971Z,76.80
2023-02-15T10:26:53.453Z,76.83
2023-02-15T10:27:54.956Z,76.76
2023-02-15T10:28:57.806Z,76.63
2023-02-15T10:30:02.403Z,76.11
2023-02-15T10:31:07.365Z,76.04
2023-02-15T10:32:12.396Z,76.00
2023-02-15T10:33:31.617Z,76.03
2023-02-15T10:34:40.192Z,75.99
2023-02-15T10:35:47.536Z,75.66
2023-02-15T10:36:48.996Z,75.78
2023-02-15T10:38:19.979Z,75.92
2023-02-15T10:39:21.664Z,75.32
2023-02-15T10:40:28.862Z,75.09
2023-02-15T10:41:35.365Z,75.63
2023-02-15T10:42:52.165Z,76.18
2023-02-15T10:43:56.559Z,76.04
2023-02-15T10:44:58.097Z,75.56
2023-02-15T10:46:04.091Z,75.64
2023-02-15T10:47:12.507Z,75.59
2023-02-15T10:48:17.910Z,75.54
2023-02-15T10:49:31.526Z,75.63
2023-02-15T10:50:47.596Z,75.75
2023-02-15T10:51:51.598Z,75.37
2023-02-15T10:53:00.585Z,75.30
2023-02-15T10:54:04.801Z,75.00
2023-02-15T10:55:09.945Z,74.59
2023-02-15T10:56:31.687Z,75.06
2023-02-15T10:57:42.418Z,74.74
2023-02-15T10:58:46.798Z,74.67
2023-02-15T11:00:03.475Z,74.70
2023-02-15T11:01:26.084Z,74.45
2023-02-15T11:02:57.055Z,74.50
2023-02-15T11:04:01.225Z,75.12
2023-02-15T11:05:11.794Z,75.40
2023-02-15T11:06:14.294Z,75.18
2023-02-15T11:07:15.803Z,75.28
2023-02-15T11:08:17.237Z,75.14
2023-02-15T11:09:19.258Z,74.81
2023-02-15T11:10:32.994Z,75.18
2023-02-15T11:11:40.253Z,75.23
2023-02-15T11:12:41.945Z,75.15
2023-02-15T11:13:45.310Z,75.30
2023-02-15T11:14:50.376Z,75.47
2023-02-15T11:15:55.209Z,75.60
2023-02-15T11:16:58.151Z,75.45
2023-02-15T11:18:19.902Z,75.77
2023-02-15T11:19:28.602Z,75.86
2023-02-15T11:20:33.331Z,75.37
2023-02-15T11:21:40.005Z,75.21
2023-02-15T11:22:41.594Z,74.82
2023-02-15T11:23:45.418Z,74.49
2023-02-15T11:24:47.117Z,74.61
2023-02-15T11:25:53.690Z,74.61
2023-02-15T11:26:58.724Z,74.53
2023-02-15T11:28:00.681Z,74.55
2023-02-15T11:29:13.191Z,74.24
2023-02-15T11:30:16.876Z,74.07
2023-02-15T11:31:19.684Z,74.65
2023-02-15T11:32:22.452Z,74.33
2023-02-15T11:33:34.772Z,74.97
2023-02-15T11:34:37.501Z,75.44
2023-02-15T11:35:42.672Z,75.04
2023-02-15T11:36:44.261Z,75.21
2023-02-15T11:37:56.185Z,75.11
2023-02-15T11:38:59.016Z,75.29
2023-02-15T11:40:01.635Z,74.47
2023-02-15T11:41:05.049Z,74.48
2023-02-15T11:42:07.978Z,74.49
2023-02-15T11:43:14.158Z,74.61
2023-02-15T11:44:17.278Z,74.45
2023-02-15T11:45:20.904Z,74.71
2023-02-15T11:46:22.866Z,74.71
2023-02-15T11:47:24.411Z,75.09
2023-02-15T11:48:25.870Z,74.75
2023-02-15T11:49:29.041Z,75.35
2023-02-15T11:50:31.016Z,75.43
2023-02-15T11:51:32.530Z,75.29
2023-02-15T11:52:34.018Z,75.91
2023-02-15T11:53:37.004Z,75.81
2023-02-15T11:54:40.923Z,75.23
2023-02-15T11:55:43.038Z,75.29
2023-02-15T11:56:44.549Z,75.29
2023-02-15T11:57:47.453Z,75.46
2023-02-15T11:58:53.531Z,75.23
2023-02-15T11:59:57.369Z,74.76
2023-02-15T12:01:10.431Z,74.70
2023-02-15T12:02:19.115Z,74.22
2023-02-15T12:03:23.630Z,74.66
2023-02-15T12:04:25.180Z,74.40
2023-02-15T12:05:26.620Z,74.27
2023-02-15T12:06:33.495Z,74.51
2023-02-15T12:07:39.048Z,74.81
2023-02-15T12:08:41.458Z,74.92
2023-02-15T12:09:54.847Z,74.63
2023-02-15T12:11:01.773Z,74.83
2023-02-15T12:12:25.772Z,74.71
2023-02-15T12:13:27.294Z,74.49
2023-02-15T12:14:29.076Z,74.23
2023-02-15T12:15:31.100Z,74.44
2023-02-15T12:16:33.663Z,74.49
2023-02-15T12:17:41.845Z,74.36
2023-02-15T12:18:45.407Z,74.42
2023-02-15T12:19:51.432Z,74.29
2023-02-15T12:20:52.955Z,74.06
2023-02-15T12:21:54.494Z,74.24
2023-02-15T12:23:03.056Z,74.18
2023-02-15T12:24:17.460Z,74.24
2023-02-15T12:25:22.653Z,74.11
2023-02-15T12:26:25.009Z,73.79
2023-02-15T12:27:27.787Z,73.74
2023-02-15T12:28:33.540Z,74.39
2023-02-15T12:29:41.866Z,73.90
2023-02-15T12:30:43.357Z,74.57
2023-02-15T12:31:45.388Z,74.69
2023-02-15T12:32:51.337Z,74.58
2023-02-15T12:33:54.897Z,74.60
2023-02-15T12:34:58.524Z,74.49
2023-02-15T12:36:02.486Z,74.70
2023-02-15T12:37:08.887Z,74.35
2023-02-15T12:38:10.367Z,74.43
2023-02-15T12:39:14.944Z,74.34
2023-02-15T12:40:20.963Z,73.72
2023-02-15T12:41:23.724Z,74.08
2023-02-15T12:42:25.711Z,74.09
2023-02-15T12:43:28.056Z,74.12
2023-02-15T12:44:30.645Z,73.77
2023-02-15T12:45:33.017Z,73.79
2023-02-15T12:46:41.795Z,73.45
2023-02-15T12:47:43.270Z,73.66
2023-02-15T12:48:44.779Z,73.65
2023-02-15T12:49:48.024Z,73.79
2023-02-15T12:50:55.477Z,74.50
2023-02-15T12:51:58.118Z,74.35
2023-02-15T12:53:09.647Z,74.78
2023-02-15T12:54:23.848Z,74.39
2023-02-15T12:55:26.567Z,74.26
2023-02-15T12:56:28.715Z,74.06
2023-02-15T12:57:31.192Z,74.21
2023-02-15T12:58:33.170Z,73.74
2023-02-15T12:59:34.672Z,73.84
2023-02-15T13:00:36.516Z,74.40
2023-02-15T13:01:38.348Z,74.19
2023-02-15T13:02:44.559Z,74.01
2023-02-15T13:04:08.779Z,73.99
2023-02-15T13:05:24.607Z,73.35
2023-02-15T13:06:26.665Z,73.85
2023-02-15T13:07:31.108Z,73.78
2023-02-15T13:08:32.852Z,73.00
2023-02-15T13:09:38.488Z,73.41
2023-02-15T13:11:03.546Z,73.00
2023-02-15T13:12:24.341Z,73.54
2023-02-15T13:13:27.684Z,73.51
2023-02-15T13:14:30.447Z,73.00
2023-02-15T13:15:38.514Z,72.99
2023-02-15T13:16:39.988Z,72.99
2023-02-15T13:17:44.849Z,72.65
2023-02-15T13:18:46.889Z,72.50
2023-02-15T13:19:49.086Z,72.71
2023-02-15T13:20:50.614Z,72.32
2023-02-15T13:21:52.787Z,72.59
2023-02-15T13:22:56.955Z,73.03
2023-02-15T13:24:02.614Z,72.93
2023-02-15T13:25:11.497Z,73.01
2023-02-15T13:26:15.630Z,72.76
2023-02-15T13:27:20.659Z,73.10
2023-02-15T13:28:23.622Z,72.20
2023-02-15T13:29:28.889Z,72.65
2023-02-15T13:30:36.586Z,72.83
2023-02-15T13:31:38.283Z,72.78
2023-02-15T13:32:41.798Z,73.10
2023-02-15T13:33:47.766Z,72.91
2023-02-15T13:34:49.463Z,72.76
2023-02-15T13:36:02.968Z,73.43
2023-02-15T13:37:18.069Z,73.37
2023-02-15T13:38:37.687Z,73.52
2023-02-15T13:39:40.577Z,72.95
2023-02-15T13:41:00.075Z,72.92
2023-02-15T13:42:04.548Z,72.78
2023-02-15T13:43:11.806Z,73.35
2023-02-15T13:44:25.368Z,73.26
2023-02-15T13:45:26.829Z,72.86
2023-02-15T13:46:33.381Z,73.14
2023-02-15T13:47:53.432Z,73.04
2023-02-15T13:49:00.790Z,73.28